createdAt,value
2022-10-26T00:02:12.155Z,97456.00
2022-10-26T00:04:40.579Z,97449.66
2022-10-26T00:07:09.209Z,97440.91
2022-10-26T00:09:37.566Z,97440.19
2022-10-26T00:12:06.243Z,97440.47
2022-10-26T00:14:36.346Z,97444.72
2022-10-26T00:17:04.622Z,97431.81
2022-10-26T00:19:35.308Z,97437.91
2022-10-26T00:22:03.870Z,97431.81
2022-10-26T00:24:32.148Z,97441.88
2022-10-26T00:27:00.393Z,97437.50
2022-10-26T00:29:28.954Z,97435.09
2022-10-26T00:31:58.590Z,97437.38
2022-10-26T00:34:26.918Z,97441.72
2022-10-26T00:36:55.199Z,97437.47
2022-10-26T00:39:23.552Z,97446.38
2022-10-26T00:41:51.815Z,97445.53
2022-10-26T00:44:49.814Z,97443.78
2022-10-26T00:47:21.035Z,97448.88
2022-10-26T00:49:49.336Z,97443.97
2022-10-26T00:52:17.588Z,97441.13
2022-10-26T00:54:45.944Z,97447.91
2022-10-26T00:57:14.295Z,97441.66
2022-10-26T00:59:42.636Z,97432.91
2022-10-26T01:02:10.897Z,97443.59
2022-10-26T01:04:40.614Z,97435.53
2022-10-26T01:07:09.234Z,97429.47
2022-10-26T01:09:37.565Z,97433.56
2022-10-26T01:12:06.446Z,97431.06
2022-10-26T01:14:34.720Z,97429.69
2022-10-26T01:17:05.481Z,97429.44
2022-10-26T01:20:04.852Z,97426.25
2022-10-26T01:22:34.848Z,97432.81
2022-10-26T01:25:08.212Z,97430.47
2022-10-26T01:27:37.031Z,97432.41
2022-10-26T01:30:18.475Z,97423.09
2022-10-26T01:32:49.568Z,97427.78
2022-10-26T01:35:19.521Z,97426.47
2022-10-26T01:37:49.748Z,97417.41
2022-10-26T01:40:20.332Z,97413.44
2022-10-26T01:42:51.536Z,97412.16
2022-10-26T01:45:21.321Z,97410.03
2022-10-26T01:47:50.028Z,97410.19
2022-10-26T01:50:18.855Z,97409.09
2022-10-26T01:52:49.387Z,97404.66
2022-10-26T01:55:41.477Z,97408.69
2022-10-26T01:58:15.035Z,97403.91
2022-10-26T02:00:47.718Z,97391.09
2022-10-26T02:03:17.005Z,97399.00
2022-10-26T02:08:47.206Z,97391.41
2022-10-26T02:11:22.678Z,97391.13
2022-10-26T02:13:54.400Z,97389.00
2022-10-26T02:16:26.363Z,97380.59
2022-10-26T02:18:58.038Z,97384.25
2022-10-26T02:21:27.712Z,97377.66
2022-10-26T02:23:57.099Z,97383.56
2022-10-26T02:26:26.991Z,97377.66
2022-10-26T02:29:09.472Z,97377.69
2022-10-26T02:31:39.594Z,97373.38
2022-10-26T02:34:09.270Z,97368.47
2022-10-26T02:36:39.192Z,97371.22
2022-10-26T02:39:07.995Z,97367.50
2022-10-26T02:41:36.618Z,97368.00
2022-10-26T02:44:09.239Z,97367.16
2022-10-26T02:46:39.612Z,97365.22
2022-10-26T02:49:08.459Z,97363.69
2022-10-26T02:51:38.988Z,97363.09
2022-10-26T02:54:11.806Z,97360.31
2022-10-26T02:56:43.734Z,97351.56
2022-10-26T02:59:12.044Z,97350.38
2022-10-26T03:01:42.134Z,97342.09
2022-10-26T03:04:11.028Z,97348.88
2022-10-26T03:06:39.591Z,97351.16
2022-10-26T03:09:08.008Z,97354.56
2022-10-26T03:11:36.560Z,97366.25
2022-10-26T03:14:05.096Z,97352.00
2022-10-26T03:16:33.803Z,97353.19
2022-10-26T03:19:03.922Z,97351.94
2022-10-26T03:21:32.681Z,97360.72
2022-10-26T03:24:01.638Z,97353.63
2022-10-26T03:26:30.033Z,97354.63
2022-10-26T03:28:58.402Z,97358.25
2022-10-26T03:31:27.676Z,97355.47
2022-10-26T03:33:55.953Z,97362.06
2022-10-26T03:36:25.584Z,97353.69
2022-10-26T03:38:53.908Z,97365.78
2022-10-26T03:41:22.571Z,97360.72
2022-10-26T03:43:50.833Z,97356.72
2022-10-26T03:46:19.263Z,97360.22
2022-10-26T03:48:48.150Z,97352.72
2022-10-26T03:51:16.546Z,97360.78
2022-10-26T03:53:46.587Z,97356.03
2022-10-26T03:56:15.324Z,97354.84
2022-10-26T03:58:43.588Z,97353.41
2022-10-26T04:01:11.885Z,97355.47
2022-10-26T04:03:40.259Z,97348.25
2022-10-26T04:06:08.848Z,97353.63
2022-10-26T04:08:37.134Z,97350.16
2022-10-26T04:11:07.064Z,97358.16
2022-10-26T04:13:35.654Z,97356.72
2022-10-26T04:16:03.891Z,97351.09
2022-10-26T04:18:32.180Z,97349.63
2022-10-26T04:21:03.447Z,97349.38
2022-10-26T04:23:31.797Z,97358.06
2022-10-26T04:26:00.073Z,97350.88
2022-10-26T04:28:29.856Z,97354.69
2022-10-26T04:30:58.078Z,97353.94
2022-10-26T04:33:26.670Z,97347.78
2022-10-26T04:35:54.886Z,97343.16
2022-10-26T04:38:23.149Z,97345.78
2022-10-26T04:40:52.397Z,97347.94
2022-10-26T04:43:20.967Z,97351.00
2022-10-26T04:45:50.574Z,97350.56
2022-10-26T04:48:18.841Z,97351.94
2022-10-26T04:50:47.702Z,97353.00
2022-10-26T04:53:16.179Z,97346.78
2022-10-26T04:55:44.488Z,97347.69
2022-10-26T04:58:12.774Z,97344.19
2022-10-26T05:00:41.013Z,97346.97
2022-10-26T05:03:11.061Z,97349.25
2022-10-26T05:05:39.583Z,97339.72
2022-10-26T05:08:10.421Z,97348.03
2022-10-26T05:10:41.279Z,97343.34
2022-10-26T05:13:10.548Z,97336.03
2022-10-26T05:15:38.773Z,97344.78
2022-10-26T05:18:08.442Z,97350.72
2022-10-26T05:20:38.090Z,97348.72
2022-10-26T05:23:07.060Z,97346.19
2022-10-26T05:25:36.955Z,97338.47
2022-10-26T05:28:06.124Z,97343.78
2022-10-26T05:30:34.828Z,97350.38
2022-10-26T05:33:03.529Z,97343.09
2022-10-26T05:35:32.128Z,97343.91
2022-10-26T05:38:02.208Z,97342.44
2022-10-26T05:40:30.450Z,97343.56
2022-10-26T05:43:02.168Z,97344.41
2022-10-26T05:45:30.602Z,97338.56
2022-10-26T05:48:02.536Z,97348.03
2022-10-26T05:50:31.837Z,97353.00
2022-10-26T05:53:01.474Z,97349.25
2022-10-26T05:55:30.374Z,97343.16
2022-10-26T05:57:59.153Z,97345.25
2022-10-26T06:00:28.975Z,97342.16
2022-10-26T06:03:06.819Z,97345.41
2022-10-26T06:05:37.657Z,97343.41
2022-10-26T06:08:12.191Z,97342.88
2022-10-26T06:10:42.118Z,97341.78
2022-10-26T06:13:11.901Z,97346.41
2022-10-26T06:15:47.501Z,97347.91
2022-10-26T06:18:19.895Z,97345.94
2022-10-26T06:20:52.287Z,97340.75
2022-10-26T06:23:35.474Z,97350.06
2022-10-26T06:26:06.666Z,97350.56
2022-10-26T06:28:45.084Z,97346.22
2022-10-26T06:31:16.078Z,97344.16
2022-10-26T06:33:44.621Z,97345.50
2022-10-26T06:36:19.731Z,97352.53
2022-10-26T06:38:49.774Z,97347.88
2022-10-26T06:41:19.496Z,97344.09
2022-10-26T06:43:48.413Z,97354.63
2022-10-26T06:46:22.451Z,97355.28
2022-10-26T06:49:10.819Z,97348.75
2022-10-26T06:51:42.660Z,97349.53
2022-10-26T06:54:15.430Z,97347.69
2022-10-26T06:56:43.707Z,97348.16
2022-10-26T06:59:16.790Z,97352.31
2022-10-26T07:01:45.140Z,97356.06
2022-10-26T07:04:13.588Z,97357.47
2022-10-26T07:06:41.803Z,97356.97
2022-10-26T07:09:10.153Z,97369.19
2022-10-26T07:11:39.754Z,97353.53
2022-10-26T07:14:08.741Z,97360.81
2022-10-26T07:16:37.606Z,97359.47
2022-10-26T07:19:05.945Z,97355.44
2022-10-26T07:21:34.605Z,97357.44
2022-10-26T07:24:02.908Z,97360.66
2022-10-26T07:26:31.356Z,97357.28
2022-10-26T07:29:01.724Z,97359.44
2022-10-26T07:31:30.011Z,97363.28
2022-10-26T07:33:58.407Z,97365.38
2022-10-26T07:36:26.929Z,97368.72
2022-10-26T07:38:55.494Z,97375.22
2022-10-26T07:41:41.312Z,97386.47
2022-10-26T07:44:11.505Z,97393.28
2022-10-26T07:46:39.885Z,97376.38
2022-10-26T07:49:08.121Z,97375.53
2022-10-26T07:51:36.801Z,97386.06
2022-10-26T07:54:23.393Z,97377.31
2022-10-26T07:56:51.766Z,97380.31
2022-10-26T07:59:21.440Z,97398.56
2022-10-26T08:01:49.843Z,97400.00
2022-10-26T08:04:18.167Z,97394.91
2022-10-26T08:06:47.369Z,97395.28
2022-10-26T08:09:15.647Z,97392.59
2022-10-26T08:11:44.247Z,97407.34
2022-10-26T08:14:31.245Z,97404.94
2022-10-26T08:17:01.294Z,97411.16
2022-10-26T08:19:29.879Z,97408.94
2022-10-26T08:21:59.240Z,97416.69
2022-10-26T08:24:27.513Z,97407.19
2022-10-26T08:26:55.728Z,97400.81
2022-10-26T08:29:24.324Z,97405.25
2022-10-26T08:31:52.594Z,97397.84
2022-10-26T08:34:22.387Z,97395.31
2022-10-26T08:36:51.643Z,97393.97
2022-10-26T08:39:20.372Z,97393.03
2022-10-26T08:41:52.925Z,97396.28
2022-10-26T08:44:25.556Z,97398.06
2022-10-26T08:46:55.930Z,97400.66
2022-10-26T08:49:26.683Z,97410.75
2022-10-26T08:51:56.449Z,97410.22
2022-10-26T08:54:30.133Z,97425.88
2022-10-26T08:57:00.168Z,97436.38
2022-10-26T08:59:32.526Z,97424.41
2022-10-26T09:02:02.971Z,97435.75
2022-10-26T09:04:34.536Z,97433.50
2022-10-26T09:07:06.525Z,97433.41
2022-10-26T09:09:40.356Z,97432.59
2022-10-26T09:12:11.187Z,97435.22
2022-10-26T09:14:43.775Z,97433.53
2022-10-26T09:17:14.717Z,97429.00
2022-10-26T09:19:58.090Z,97434.56
2022-10-26T09:23:17.493Z,97435.72
2022-10-26T09:25:53.502Z,97428.78
2022-10-26T09:28:22.769Z,97436.72
2022-10-26T09:30:51.057Z,97426.16
2022-10-26T09:33:20.215Z,97440.72
2022-10-26T09:35:51.417Z,97442.41
2022-10-26T09:38:22.484Z,97448.81
2022-10-26T09:40:54.102Z,97460.03
2022-10-26T09:43:24.805Z,97464.28
2022-10-26T09:45:53.727Z,97473.41
2022-10-26T09:48:29.513Z,97472.53
2022-10-26T09:51:03.668Z,97468.31
2022-10-26T09:53:33.138Z,97485.38
2022-10-26T09:56:03.637Z,97491.66
2022-10-26T09:58:33.236Z,97496.56
2022-10-26T10:01:01.482Z,97500.56
2022-10-26T10:03:30.855Z,97506.50
2022-10-26T10:06:17.182Z,97519.03
2022-10-26T10:08:46.758Z,97520.56
2022-10-26T10:11:15.592Z,97519.91
2022-10-26T10:13:44.638Z,97515.53
2022-10-26T10:16:14.770Z,97507.91
2022-10-26T10:18:43.336Z,97515.38
2022-10-26T10:21:14.430Z,97517.16
2022-10-26T10:23:49.779Z,97520.91
2022-10-26T10:26:18.036Z,97523.28
2022-10-26T10:28:57.678Z,97526.31
2022-10-26T10:31:29.111Z,97518.88
2022-10-26T10:33:57.424Z,97530.34
2022-10-26T10:36:29.932Z,97521.69
2022-10-26T10:38:59.476Z,97524.56
2022-10-26T10:41:30.642Z,97528.50
2022-10-26T10:44:02.935Z,97524.22
2022-10-26T10:46:31.638Z,97535.41
2022-10-26T10:49:05.020Z,97544.16
2022-10-26T10:51:38.019Z,97539.94
2022-10-26T10:54:07.055Z,97536.03
2022-10-26T10:56:37.897Z,97544.81
2022-10-26T10:59:18.092Z,97549.66
2022-10-26T11:01:49.641Z,97546.16
2022-10-26T11:04:27.448Z,97546.66
2022-10-26T11:06:57.922Z,97551.38
2022-10-26T11:09:30.740Z,97550.84
2022-10-26T11:12:06.796Z,97551.00
2022-10-26T11:14:43.299Z,97557.25
2022-10-26T11:17:20.352Z,97557.69
2022-10-26T11:19:50.668Z,97564.84
2022-10-26T11:22:22.642Z,97566.31
2022-10-26T11:24:51.939Z,97579.19
2022-10-26T11:27:23.817Z,97579.19
2022-10-26T11:29:54.909Z,97573.41
2022-10-26T11:32:24.441Z,97576.56
2022-10-26T11:34:55.484Z,97572.69
2022-10-26T11:37:27.375Z,97580.69
2022-10-26T11:40:25.501Z,97577.16
2022-10-26T11:43:07.340Z,97580.13
2022-10-26T11:48:35.821Z,97585.50
2022-10-26T11:51:04.461Z,97584.03
2022-10-26T11:53:37.023Z,97582.69
2022-10-26T11:56:05.579Z,97589.44
2022-10-26T11:58:37.853Z,97583.19
2022-10-26T12:01:12.999Z,97597.09
2022-10-26T12:03:45.723Z,97596.00
2022-10-26T12:06:14.264Z,97592.38
2022-10-26T12:08:45.222Z,97604.19
2022-10-26T12:11:15.988Z,97601.53
2022-10-26T12:13:46.960Z,97595.34
2022-10-26T12:16:20.404Z,97596.66
2022-10-26T12:18:55.584Z,97600.06
2022-10-26T12:21:26.882Z,97600.53
2022-10-26T12:23:58.849Z,97601.31
2022-10-26T12:26:42.219Z,97601.06
2022-10-26T12:29:37.267Z,97605.00
2022-10-26T12:32:09.222Z,97601.25
2022-10-26T12:34:58.887Z,97593.94
2022-10-26T12:37:33.686Z,97608.66
2022-10-26T12:40:33.833Z,97611.34
2022-10-26T12:43:34.766Z,97608.50
2022-10-26T12:46:32.575Z,97616.50
2022-10-26T12:49:01.198Z,97623.38
2022-10-26T12:51:43.465Z,97614.63
2022-10-26T12:54:30.018Z,97619.38
2022-10-26T12:57:02.245Z,97620.91
2022-10-26T12:59:34.256Z,97633.03
2022-10-26T13:02:27.171Z,97638.91
2022-10-26T13:05:14.871Z,97640.25
2022-10-26T13:07:44.017Z,97652.25
2022-10-26T13:10:35.011Z,97640.16
2022-10-26T13:15:59.958Z,97654.25
2022-10-26T13:18:28.905Z,97657.63
2022-10-26T13:21:02.727Z,97663.50
2022-10-26T13:26:19.089Z,97650.22
2022-10-26T13:28:51.524Z,97662.59
2022-10-26T13:31:49.679Z,97659.69
2022-10-26T13:34:20.403Z,97664.06
2022-10-26T13:36:51.924Z,97657.09
2022-10-26T13:39:22.034Z,97659.78
2022-10-26T13:41:52.669Z,97657.38
2022-10-26T13:44:25.933Z,97673.31
2022-10-26T13:46:56.467Z,97666.84
2022-10-26T13:49:47.818Z,97666.84
2022-10-26T13:52:20.131Z,97662.53
2022-10-26T13:54:50.814Z,97669.06
2022-10-26T13:57:22.058Z,97661.59
2022-10-26T13:59:51.152Z,97659.66
2022-10-26T14:02:26.474Z,97665.72
2022-10-26T14:05:01.034Z,97671.00
2022-10-26T14:10:42.853Z,97678.38
2022-10-26T14:13:17.708Z,97679.94
2022-10-26T14:15:48.388Z,97683.56
2022-10-26T14:18:19.349Z,97679.94
2022-10-26T14:20:52.588Z,97682.66
2022-10-26T14:23:28.817Z,97689.50
2022-10-26T14:25:59.304Z,97692.38
2022-10-26T14:28:29.243Z,97688.53
2022-10-26T14:31:15.257Z,97693.00
2022-10-26T14:33:46.622Z,97693.44
2022-10-26T14:36:16.335Z,97697.03
2022-10-26T14:38:45.928Z,97701.19
2022-10-26T14:41:15.524Z,97706.38
2022-10-26T14:43:44.134Z,97700.50
2022-10-26T14:46:16.233Z,97702.97
2022-10-26T14:48:52.836Z,97707.34
2022-10-26T14:51:23.616Z,97710.00
2022-10-26T14:56:41.464Z,97705.81
2022-10-26T14:59:14.210Z,97712.81
2022-10-26T15:01:49.904Z,97712.16
2022-10-26T15:04:29.670Z,97711.66
2022-10-26T15:07:18.276Z,97711.53
2022-10-26T15:09:47.518Z,97715.53
2022-10-26T15:12:21.909Z,97715.47
2022-10-26T15:14:50.335Z,97719.72
2022-10-26T15:17:22.667Z,97722.94
2022-10-26T15:19:52.101Z,97715.66
2022-10-26T15:22:30.882Z,97717.34
2022-10-26T15:25:02.026Z,97720.84
2022-10-26T15:27:30.507Z,97724.63
2022-10-26T15:30:13.737Z,97715.91
2022-10-26T15:32:46.371Z,97723.50
2022-10-26T15:35:31.685Z,97730.09
2022-10-26T15:38:02.297Z,97734.69
2022-10-26T15:40:30.881Z,97733.53
2022-10-26T15:43:01.519Z,97739.28
2022-10-26T15:45:31.946Z,97738.34
2022-10-26T15:48:00.989Z,97747.19
2022-10-26T15:50:29.942Z,97750.41
2022-10-26T15:53:01.219Z,97749.56
2022-10-26T15:55:31.579Z,97755.50
2022-10-26T15:58:00.457Z,97763.31
2022-10-26T16:00:47.033Z,97772.81
2022-10-26T16:03:15.789Z,97773.00
2022-10-26T16:05:44.103Z,97777.56
2022-10-26T16:08:17.083Z,97776.88
2022-10-26T16:10:48.413Z,97787.16
2022-10-26T16:13:16.915Z,97790.38
2022-10-26T16:15:45.476Z,97800.34
2022-10-26T16:18:32.642Z,97788.50
2022-10-26T16:21:01.210Z,97780.88
2022-10-26T16:23:29.425Z,97788.47
2022-10-26T16:25:59.110Z,97791.66
2022-10-26T16:28:27.411Z,97791.66
2022-10-26T16:31:14.478Z,97797.41
2022-10-26T16:33:42.707Z,97803.28
2022-10-26T16:36:11.580Z,97812.06
2022-10-26T16:38:39.827Z,97812.38
2022-10-26T16:43:57.062Z,97831.13
2022-10-26T16:46:25.406Z,97831.06
2022-10-26T16:48:53.736Z,97831.94
2022-10-26T16:51:22.977Z,97839.50
2022-10-26T16:53:52.639Z,97841.97
2022-10-26T16:56:22.913Z,97849.25
2022-10-26T16:58:51.193Z,97854.72
2022-10-26T17:01:38.173Z,97859.53
2022-10-26T17:04:06.697Z,97866.63
2022-10-26T17:06:36.145Z,97870.03
2022-10-26T17:09:04.473Z,97878.44
2022-10-26T17:11:34.046Z,97883.00
2022-10-26T17:14:02.347Z,97889.91
2022-10-26T17:16:30.689Z,97895.31
2022-10-26T17:18:59.250Z,97899.47
2022-10-26T17:21:30.911Z,97900.31
2022-10-26T17:24:17.179Z,97904.16
2022-10-26T17:26:47.235Z,97917.16
2022-10-26T17:29:15.501Z,97920.16
2022-10-26T17:31:43.736Z,97924.66
2022-10-26T17:34:12.183Z,97925.34
2022-10-26T17:36:40.449Z,97931.13
2022-10-26T17:39:08.659Z,97935.00
2022-10-26T17:41:37.781Z,97931.97
2022-10-26T17:44:09.410Z,97933.81
2022-10-26T17:46:38.002Z,97938.63
2022-10-26T17:49:06.299Z,97948.44
2022-10-26T17:51:34.594Z,97953.06
2022-10-26T17:54:03.168Z,97958.97
2022-10-26T17:56:50.312Z,97958.66
2022-10-26T17:59:20.390Z,97966.22
2022-10-26T18:01:48.980Z,97974.19
2022-10-26T18:04:17.729Z,97967.25
2022-10-26T18:06:46.070Z,97972.41
2022-10-26T18:09:14.336Z,97973.41
2022-10-26T18:11:42.585Z,97976.97
2022-10-26T18:14:11.331Z,97990.34
2022-10-26T18:16:51.413Z,97979.38
2022-10-26T18:19:19.898Z,97993.72
2022-10-26T18:21:48.338Z,97994.28
2022-10-26T18:24:16.733Z,97998.22
2022-10-26T18:26:44.977Z,98008.16
2022-10-26T18:29:14.149Z,98008.25
2022-10-26T18:31:45.243Z,98017.50
2022-10-26T18:34:13.554Z,98021.75
2022-10-26T18:36:41.781Z,98028.38
2022-10-26T18:39:10.007Z,98025.09
2022-10-26T18:41:38.234Z,98028.94
2022-10-26T18:44:06.459Z,98030.72
2022-10-26T18:46:39.902Z,98034.75
2022-10-26T18:49:14.686Z,98034.34
2022-10-26T18:51:51.386Z,98037.06
2022-10-26T18:54:19.708Z,98039.75
2022-10-26T18:56:47.917Z,98044.31
2022-10-26T18:59:16.124Z,98046.16
2022-10-26T19:01:45.891Z,98050.72
2022-10-26T19:04:15.835Z,98050.88
2022-10-26T19:06:45.624Z,98051.03
2022-10-26T19:09:13.926Z,98047.25
2022-10-26T19:11:42.480Z,98052.13
2022-10-26T19:14:11.002Z,98063.38
2022-10-26T19:16:57.698Z,98062.44
2022-10-26T19:19:27.461Z,98068.84
2022-10-26T19:21:56.100Z,98070.63
2022-10-26T19:24:25.024Z,98068.22
2022-10-26T19:26:54.285Z,98063.56
2022-10-26T19:29:23.853Z,98067.28
2022-10-26T19:31:53.204Z,98066.72
2022-10-26T19:34:22.394Z,98074.88
2022-10-26T19:36:52.591Z,98084.13
2022-10-26T19:39:22.803Z,98085.31
2022-10-26T19:41:51.319Z,98086.88
2022-10-26T19:44:37.075Z,98085.75
2022-10-26T19:47:05.874Z,98092.59
2022-10-26T19:52:21.271Z,98094.47
2022-10-26T19:54:49.536Z,98100.28
2022-10-26T19:57:17.737Z,98100.41
2022-10-26T19:59:45.958Z,98104.44
2022-10-26T20:02:14.511Z,98107.84
2022-10-26T20:04:42.742Z,98119.06
2022-10-26T20:07:11.199Z,98106.16
2022-10-26T20:09:40.858Z,98110.56
2022-10-26T20:12:12.746Z,98112.16
2022-10-26T20:14:41.519Z,98113.56
2022-10-26T20:17:09.736Z,98115.03
2022-10-26T20:19:37.963Z,98123.25
2022-10-26T20:22:06.150Z,98119.69
2022-10-26T20:24:34.387Z,98128.66
2022-10-26T20:27:04.064Z,98128.50
2022-10-26T20:29:32.300Z,98125.25
2022-10-26T20:32:00.502Z,98137.47
2022-10-26T20:37:01.993Z,98127.81
2022-10-26T20:39:30.971Z,98130.78
2022-10-26T20:41:59.687Z,98124.25
2022-10-26T20:44:31.974Z,98133.91
2022-10-26T20:47:00.535Z,98132.63
2022-10-26T20:49:29.415Z,98123.53
2022-10-26T20:52:21.285Z,98131.63
2022-10-26T20:54:53.072Z,98135.19
2022-10-26T20:57:23.878Z,98139.47
2022-10-26T20:59:54.189Z,98146.13
2022-10-26T21:02:22.669Z,98145.28
2022-10-26T21:04:51.277Z,98152.69
2022-10-26T21:07:19.532Z,98146.69
2022-10-26T21:09:47.737Z,98142.31
2022-10-26T21:12:15.981Z,98141.44
2022-10-26T21:14:44.139Z,98149.69
2022-10-26T21:17:13.872Z,98145.84
2022-10-26T21:19:42.681Z,98147.56
2022-10-26T21:22:10.930Z,98157.63
2022-10-26T21:24:39.136Z,98153.09
2022-10-26T21:27:07.614Z,98160.19
2022-10-26T21:29:35.767Z,98159.78
2022-10-26T21:32:04.167Z,98159.47
2022-10-26T21:34:33.811Z,98169.28
2022-10-26T21:37:02.679Z,98170.25
2022-10-26T21:39:30.839Z,98166.28
2022-10-26T21:41:59.062Z,98168.72
2022-10-26T21:44:40.381Z,98175.66
2022-10-26T21:47:10.334Z,98183.47
2022-10-26T21:52:13.401Z,98190.56
2022-10-26T21:54:41.567Z,98190.81
2022-10-26T21:57:09.765Z,98195.09
2022-10-26T21:59:37.917Z,98192.81
2022-10-26T22:02:06.506Z,98193.13
2022-10-26T22:04:35.060Z,98197.38
2022-10-26T22:07:04.590Z,98206.13
2022-10-26T22:09:37.361Z,98202.03
2022-10-26T22:12:13.418Z,98210.72
2022-10-26T22:14:41.602Z,98204.75
2022-10-26T22:17:10.070Z,98201.47
2022-10-26T22:19:38.243Z,98197.38
2022-10-26T22:22:07.752Z,98208.28
2022-10-26T22:24:35.915Z,98207.81
2022-10-26T22:27:04.351Z,98201.31
2022-10-26T22:29:32.510Z,98197.38
2022-10-26T22:32:00.650Z,98200.34
2022-10-26T22:34:28.825Z,98200.19
2022-10-26T22:36:56.956Z,98204.56
2022-10-26T22:39:26.944Z,98193.38
2022-10-26T22:41:55.081Z,98196.06
2022-10-26T22:44:23.268Z,98199.47
2022-10-26T22:46:51.398Z,98201.44
2022-10-26T22:49:19.553Z,98207.81
2022-10-26T22:51:47.691Z,98207.28
2022-10-26T22:54:15.912Z,98211.09
2022-10-26T22:56:45.735Z,98214.63
2022-10-26T22:59:13.882Z,98212.34
2022-10-26T23:01:42.164Z,98214.56
2022-10-26T23:04:11.770Z,98209.63
2022-10-26T23:06:40.326Z,98218.25
2022-10-26T23:09:08.537Z,98210.59
2022-10-26T23:11:36.703Z,98214.28
2022-10-26T23:14:06.478Z,98209.28
2022-10-26T23:16:34.646Z,98219.38
2022-10-26T23:19:02.790Z,98222.19
2022-10-26T23:21:30.955Z,98221.22
2022-10-26T23:23:59.130Z,98226.00
2022-10-26T23:26:27.824Z,98225.28
2022-10-26T23:28:56.335Z,98223.19
2022-10-26T23:31:27.014Z,98229.69
2022-10-26T23:33:55.882Z,98230.28
2022-10-26T23:36:24.883Z,98230.41
2022-10-26T23:38:53.153Z,98239.31
2022-10-26T23:41:21.502Z,98232.09
2022-10-26T23:43:51.887Z,98238.47
2022-10-26T23:46:22.512Z,98235.88
2022-10-26T23:48:52.424Z,98224.81
2022-10-26T23:51:21.043Z,98226.09
2022-10-26T23:53:49.285Z,98225.38
2022-10-26T23:56:17.479Z,98215.88
2022-10-26T23:58:45.714Z,98214.56
